createdAt,value
2023-05-07T00:08:07.665Z,16.9
2023-05-07T00:13:44.063Z,16.9
2023-05-07T00:19:20.991Z,16.9
2023-05-07T00:24:59.320Z,16.9
2023-05-07T00:30:51.209Z,16.9
2023-05-07T00:36:43.993Z,16.9
2023-05-07T00:42:36.512Z,16.9
2023-05-07T00:48:13.395Z,16.9
2023-05-07T00:54:05.187Z,16.9
2023-05-07T00:59:57.333Z,16.9
2023-05-07T01:05:55.698Z,16.9
2023-05-07T01:11:33.768Z,16.9
2023-05-07T01:17:26.244Z,16.9
2023-05-07T01:23:18.313Z,16.9
2023-05-07T01:29:10.141Z,16.9
2023-05-07T01:35:02.699Z,16.9
2023-05-07T01:40:55.186Z,16.9
2023-05-07T01:46:47.077Z,16.9
2023-05-07T01:52:40.412Z,16.8
2023-05-07T01:58:31.271Z,16.8
2023-05-07T02:04:25.250Z,16.8
2023-05-07T02:10:16.268Z,16.8
2023-05-07T02:16:08.728Z,16.8
2023-05-07T02:22:03.461Z,16.8
2023-05-07T02:27:56.261Z,16.8
2023-05-07T02:33:48.119Z,16.8
2023-05-07T02:39:39.308Z,16.8
2023-05-07T02:45:31.691Z,16.8
2023-05-07T02:51:24.779Z,16.8
2023-05-07T02:57:18.003Z,16.8
2023-05-07T03:03:11.963Z,16.8
2023-05-07T03:09:03.981Z,16.8
2023-05-07T03:14:55.777Z,16.7
2023-05-07T03:20:49.137Z,16.8
2023-05-07T03:26:42.915Z,16.7
2023-05-07T03:32:34.919Z,16.7
2023-05-07T03:38:27.283Z,16.7
2023-05-07T03:44:20.354Z,16.7
2023-05-07T03:50:12.143Z,16.7
2023-05-07T03:56:05.238Z,16.7
2023-05-07T04:01:57.021Z,16.7
2023-05-07T04:07:51.001Z,16.7
2023-05-07T04:13:43.413Z,16.7
2023-05-07T04:19:35.628Z,16.6
2023-05-07T04:25:27.759Z,16.6
2023-05-07T04:31:20.558Z,16.6
2023-05-07T04:37:12.106Z,16.7
2023-05-07T04:43:04.212Z,16.6
2023-05-07T04:48:57.375Z,16.6
2023-05-07T04:54:49.184Z,16.6
2023-05-07T05:00:41.958Z,16.6
2023-05-07T05:06:35.392Z,16.6
2023-05-07T05:12:26.943Z,16.6
2023-05-07T05:18:19.682Z,16.6
2023-05-07T05:24:11.560Z,16.6
2023-05-07T05:30:02.893Z,16.6
2023-05-07T05:35:56.961Z,16.6
2023-05-07T05:41:49.077Z,16.6
2023-05-07T05:47:27.765Z,16.6
2023-05-07T05:53:20.486Z,16.6
2023-05-07T05:59:13.278Z,16.6
2023-05-07T06:05:05.012Z,16.6
2023-05-07T06:10:57.057Z,16.6
2023-05-07T06:16:49.919Z,16.6
2023-05-07T06:22:41.062Z,16.6
2023-05-07T06:28:34.880Z,16.6
2023-05-07T06:34:27.781Z,16.6
2023-05-07T06:40:19.979Z,16.6
2023-05-07T06:46:11.741Z,16.6
2023-05-07T06:51:49.752Z,16.6
2023-05-07T06:57:42.618Z,16.6
2023-05-07T07:03:35.345Z,16.6
2023-05-07T07:09:28.097Z,16.6
2023-05-07T07:15:20.220Z,16.6
2023-05-07T07:21:13.555Z,16.6
2023-05-07T07:27:07.726Z,16.6
2023-05-07T07:33:01.231Z,16.6
2023-05-07T07:39:04.531Z,16.6
2023-05-07T07:44:58.239Z,16.6
2023-05-07T07:51:08.820Z,16.6
2023-05-07T07:57:06.674Z,16.6
2023-05-07T08:03:03.521Z,16.6
2023-05-07T08:08:44.995Z,16.6
2023-05-07T08:14:39.344Z,16.7
2023-05-07T08:20:33.533Z,16.7
2023-05-07T08:26:28.352Z,16.6
2023-05-07T08:32:23.592Z,16.7
2023-05-07T08:38:19.255Z,16.6
2023-05-07T08:44:15.250Z,16.7
2023-05-07T08:50:10.002Z,16.7
2023-05-07T08:56:04.549Z,16.7
2023-05-07T09:01:59.517Z,16.7
2023-05-07T09:07:39.144Z,16.7
2023-05-07T09:13:36.422Z,16.7
2023-05-07T09:19:15.872Z,16.7
2023-05-07T09:25:12.648Z,16.7
2023-05-07T09:31:10.003Z,16.8
2023-05-07T09:37:05.932Z,16.8
2023-05-07T09:43:03.117Z,16.8
2023-05-07T09:48:57.196Z,16.8
2023-05-07T09:54:50.478Z,16.8
2023-05-07T10:00:48.117Z,16.8
2023-05-07T10:06:44.775Z,16.8
2023-05-07T10:12:38.144Z,16.8
2023-05-07T10:18:34.574Z,16.8
2023-05-07T10:24:30.863Z,16.8
2023-05-07T10:30:27.472Z,16.8
2023-05-07T10:36:22.986Z,16.8
2023-05-07T10:42:02.506Z,16.8
2023-05-07T10:47:56.700Z,16.8
2023-05-07T10:53:54.912Z,16.8
2023-05-07T10:59:58.644Z,16.8
2023-05-07T11:06:01.489Z,16.9
2023-05-07T11:11:55.659Z,16.9
2023-05-07T11:17:53.706Z,16.9
2023-05-07T11:23:50.059Z,16.9
2023-05-07T11:29:44.781Z,16.9
2023-05-07T11:41:18.300Z,17.1
2023-05-07T11:47:18.098Z,17.1
2023-05-07T11:53:14.354Z,17.2
2023-05-07T11:59:08.353Z,17.2
2023-05-07T12:05:03.851Z,17.2
2023-05-07T12:10:45.779Z,17.2
2023-05-07T12:16:25.636Z,17.3
2023-05-07T12:22:03.876Z,17.3
2023-05-07T12:27:28.957Z,17.4
2023-05-07T12:33:22.394Z,17.3
2023-05-07T12:39:15.760Z,17.4
2023-05-07T12:44:56.063Z,17.4
2023-05-07T12:50:35.510Z,17.4
2023-05-07T12:56:13.698Z,17.5
2023-05-07T13:01:52.610Z,17.5
2023-05-07T13:07:32.238Z,17.6
2023-05-07T13:13:10.485Z,17.6
2023-05-07T13:19:09.147Z,17.6
2023-05-07T13:24:48.349Z,17.6
2023-05-07T13:31:09.365Z,17.6
2023-05-07T13:37:04.109Z,17.6
2023-05-07T13:42:57.984Z,17.6
2023-05-07T13:48:50.221Z,17.7
2023-05-07T13:54:27.801Z,17.8
2023-05-07T14:00:35.296Z,17.8
2023-05-07T14:06:13.358Z,17.8
2023-05-07T14:12:08.853Z,17.8
2023-05-07T14:18:01.171Z,17.9
2023-05-07T14:23:56.210Z,17.9
2023-05-07T14:30:05.265Z,17.9
2023-05-07T14:35:57.211Z,17.9
2023-05-07T14:41:49.679Z,17.9
2023-05-07T14:47:42.730Z,17.9
2023-05-07T14:53:33.673Z,17.9
2023-05-07T14:59:28.258Z,18
2023-05-07T15:05:25.031Z,18.1
2023-05-07T15:11:16.195Z,18
2023-05-07T15:17:08.192Z,18.1
2023-05-07T15:23:03.886Z,18.1
2023-05-07T15:28:57.050Z,18
2023-05-07T15:34:49.737Z,18
2023-05-07T15:40:41.772Z,18
2023-05-07T15:46:33.394Z,18
2023-05-07T15:52:25.858Z,18.1
2023-05-07T15:58:18.471Z,18.1
2023-05-07T16:04:12.498Z,18.1
2023-05-07T16:10:05.197Z,18
2023-05-07T16:15:58.029Z,18.1
2023-05-07T16:21:52.186Z,18.1
2023-05-07T16:27:44.001Z,18.1
2023-05-07T16:33:35.647Z,18.1
2023-05-07T16:39:28.740Z,18
2023-05-07T16:45:23.915Z,18
2023-05-07T16:51:00.429Z,18
2023-05-07T16:56:37.532Z,18
2023-05-07T17:02:46.223Z,18
2023-05-07T17:08:39.866Z,18
2023-05-07T17:14:32.430Z,18
2023-05-07T17:20:24.516Z,18
2023-05-07T17:26:16.085Z,17.9
2023-05-07T17:32:08.513Z,18
2023-05-07T17:38:16.559Z,18
2023-05-07T17:43:52.600Z,18
2023-05-07T17:49:44.198Z,17.9
2023-05-07T17:55:45.316Z,18
2023-05-07T18:01:34.846Z,17.9
2023-05-07T18:07:26.549Z,17.9
2023-05-07T18:13:03.083Z,17.9
2023-05-07T18:18:55.414Z,17.9
2023-05-07T18:24:48.473Z,17.9
2023-05-07T18:30:40.691Z,18
2023-05-07T18:36:20.501Z,17.9
2023-05-07T18:42:12.303Z,17.9
2023-05-07T18:48:04.866Z,17.9
2023-05-07T18:53:57.089Z,18
2023-05-07T18:59:32.349Z,17.9
2023-05-07T19:05:24.516Z,17.9
2023-05-07T19:11:28.321Z,17.9
2023-05-07T19:17:23.296Z,17.9
2023-05-07T19:23:15.609Z,17.9
2023-05-07T19:29:28.708Z,17.9
2023-05-07T19:35:21.449Z,17.9
2023-05-07T19:40:59.183Z,17.9
2023-05-07T19:46:52.242Z,17.9
2023-05-07T19:52:46.883Z,17.9
2023-05-07T19:58:40.932Z,17.9
2023-05-07T20:04:35.635Z,17.9
2023-05-07T20:10:13.488Z,17.9
2023-05-07T20:15:52.684Z,17.9
2023-05-07T20:21:47.094Z,17.9
2023-05-07T20:27:23.199Z,17.9
2023-05-07T20:33:15.380Z,17.8
2023-05-07T20:39:07.597Z,17.9
2023-05-07T20:45:00.556Z,17.8
2023-05-07T20:50:54.427Z,17.9
2023-05-07T20:56:49.292Z,17.8
2023-05-07T21:02:41.847Z,17.8
2023-05-07T21:08:33.985Z,17.8
2023-05-07T21:14:25.990Z,17.8
2023-05-07T21:20:18.184Z,17.8
2023-05-07T21:26:09.898Z,17.8
2023-05-07T21:31:46.757Z,17.8
2023-05-07T21:37:39.045Z,17.8
2023-05-07T21:43:31.415Z,17.8
2023-05-07T21:49:23.534Z,17.8
2023-05-07T21:55:14.609Z,17.8
2023-05-07T22:01:22.214Z,17.8
2023-05-07T22:07:15.292Z,17.8
2023-05-07T22:13:06.385Z,17.8
2023-05-07T22:19:11.692Z,17.8
2023-05-07T22:25:04.923Z,17.8
2023-05-07T22:30:40.231Z,17.8
2023-05-07T22:36:35.629Z,17.8
2023-05-07T22:42:27.860Z,17.7
2023-05-07T22:48:20.632Z,17.8
2023-05-07T22:54:12.897Z,17.8
2023-05-07T23:00:04.413Z,17.8
2023-05-07T23:05:56.217Z,17.7
2023-05-07T23:11:47.890Z,17.8
2023-05-07T23:17:42.911Z,17.7
2023-05-07T23:23:34.297Z,17.7
2023-05-07T23:29:26.222Z,17.7
2023-05-07T23:35:18.816Z,17.7
2023-05-07T23:41:09.788Z,17.7
2023-05-07T23:47:00.597Z,17.7
2023-05-07T23:52:52.032Z,17.7
2023-05-07T23:58:42.398Z,17.7
